createdAt,value
2019-04-11T00:01:19.691Z,5.43
2019-04-11T00:03:51.407Z,5.43
2019-04-11T00:06:21.836Z,5.34
2019-04-11T00:08:52.814Z,5.36
2019-04-11T00:11:23.936Z,5.32
2019-04-11T00:13:55.721Z,5.18
2019-04-11T00:16:26.426Z,5.19
2019-04-11T00:18:56.946Z,5.19
2019-04-11T00:21:27.286Z,5.27
2019-04-11T00:23:58.560Z,5.20
2019-04-11T00:26:30.483Z,5.12
2019-04-11T00:29:01.767Z,5.08
2019-04-11T00:31:32.682Z,5.12
2019-04-11T00:34:04.636Z,5.26
2019-04-11T00:36:36.756Z,5.27
2019-04-11T00:39:08.074Z,5.28
2019-04-11T00:41:38.267Z,5.16
2019-04-11T00:44:08.510Z,5.20
2019-04-11T00:46:40.482Z,5.35
2019-04-11T00:49:10.676Z,5.34
2019-04-11T00:51:42.245Z,5.37
2019-04-11T00:54:14.199Z,5.44
2019-04-11T00:56:44.616Z,5.28
2019-04-11T00:59:16.234Z,5.33
2019-04-11T01:01:47.157Z,5.32
2019-04-11T01:04:17.960Z,5.30
2019-04-11T01:06:48.104Z,5.29
2019-04-11T01:09:20.115Z,5.23
2019-04-11T01:11:50.321Z,5.37
2019-04-11T01:14:21.597Z,5.30
2019-04-11T01:16:54.256Z,5.36
2019-04-11T01:19:26.772Z,5.28
2019-04-11T01:21:58.009Z,5.26
2019-04-11T01:24:29.166Z,5.24
2019-04-11T01:26:59.749Z,5.12
2019-04-11T01:29:29.981Z,5.04
2019-04-11T01:32:04.388Z,5.17
2019-04-11T01:34:35.051Z,5.23
2019-04-11T01:37:05.432Z,5.24
2019-04-11T01:39:51.414Z,5.31
2019-04-11T01:42:22.829Z,5.33
2019-04-11T01:44:53.172Z,5.43
2019-04-11T01:47:57.747Z,5.33
2019-04-11T01:50:32.864Z,5.31
2019-04-11T01:53:03.669Z,5.11
2019-04-11T01:55:34.774Z,5.09
2019-04-11T01:58:07.203Z,5.28
2019-04-11T02:00:48.682Z,5.28
2019-04-11T02:03:23.469Z,5.13
2019-04-11T02:05:53.774Z,5.27
2019-04-11T02:08:25.030Z,5.34
2019-04-11T02:10:55.755Z,5.29
2019-04-11T02:13:28.106Z,5.29
2019-04-11T02:15:59.857Z,5.34
2019-04-11T02:18:31.766Z,5.10
2019-04-11T02:21:03.167Z,5.15
2019-04-11T02:23:47.669Z,5.21
2019-04-11T02:26:27.779Z,5.26
2019-04-11T02:28:59.346Z,5.31
2019-04-11T02:31:30.600Z,5.18
2019-04-11T02:34:01.884Z,5.20
2019-04-11T02:36:34.305Z,5.23
2019-04-11T02:39:12.863Z,5.06
2019-04-11T02:41:42.214Z,5.02
2019-04-11T02:44:33.406Z,5.18
2019-04-11T02:46:54.466Z,5.31
2019-04-11T02:49:19.333Z,5.29
2019-04-11T02:51:53.054Z,5.23
2019-04-11T02:54:26.226Z,5.09
2019-04-11T02:56:55.141Z,5.09
2019-04-11T02:59:27.319Z,5.16
2019-04-11T03:01:58.908Z,4.94
2019-04-11T03:04:31.040Z,5.09
2019-04-11T03:07:03.821Z,5.08
2019-04-11T03:09:35.363Z,5.12
2019-04-11T03:12:07.422Z,5.03
2019-04-11T03:15:01.086Z,5.03
2019-04-11T03:17:18.889Z,4.98
2019-04-11T03:19:59.289Z,4.98
2019-04-11T03:22:20.250Z,4.96
2019-04-11T03:24:53.361Z,4.91
2019-04-11T03:27:28.050Z,4.90
2019-04-11T03:29:57.985Z,4.99
2019-04-11T03:33:17.179Z,4.95
2019-04-11T03:40:27.018Z,4.86
2019-04-11T03:42:55.548Z,4.85
2019-04-11T03:45:32.547Z,4.83
2019-04-11T03:47:57.615Z,4.90
2019-04-11T03:50:18.808Z,4.96
2019-04-11T03:52:47.007Z,4.86
2019-04-11T03:55:19.181Z,4.86
2019-04-11T03:57:51.808Z,4.75
2019-04-11T04:00:23.741Z,4.79
2019-04-11T04:02:55.308Z,4.76
2019-04-11T04:05:30.308Z,4.59
2019-04-11T04:08:01.329Z,4.74
2019-04-11T04:10:34.205Z,4.71
2019-04-11T04:13:09.289Z,4.81
2019-04-11T04:16:04.988Z,4.77
2019-04-11T04:18:51.809Z,4.82
2019-04-11T04:21:36.340Z,4.73
2019-04-11T04:24:27.758Z,4.66
2019-04-11T04:26:59.734Z,4.78
2019-04-11T04:29:32.410Z,4.80
2019-04-11T04:32:02.983Z,4.67
2019-04-11T04:34:36.193Z,4.74
2019-04-11T04:37:07.904Z,4.70
2019-04-11T04:39:39.976Z,4.63
2019-04-11T04:42:20.549Z,4.72
2019-04-11T04:44:44.611Z,4.83
2019-04-11T04:47:22.346Z,4.91
2019-04-11T04:49:48.227Z,4.84
2019-04-11T04:52:20.660Z,4.93
2019-04-11T04:54:52.873Z,4.99
2019-04-11T04:57:24.423Z,4.78
2019-04-11T04:59:55.570Z,4.74
2019-04-11T05:02:28.128Z,4.72
2019-04-11T05:04:58.778Z,4.75
2019-04-11T05:07:32.567Z,4.81
2019-04-11T05:10:03.320Z,4.83
2019-04-11T05:12:34.775Z,4.79
2019-04-11T05:15:05.645Z,4.68
2019-04-11T05:17:38.707Z,4.74
2019-04-11T05:20:10.106Z,4.68
2019-04-11T05:22:41.541Z,4.71
2019-04-11T05:25:12.613Z,4.75
2019-04-11T05:27:42.853Z,4.75
2019-04-11T05:30:13.092Z,4.76
2019-04-11T05:32:43.482Z,4.74
2019-04-11T05:35:14.369Z,4.48
2019-04-11T05:37:45.109Z,4.50
2019-04-11T05:40:16.794Z,4.53
2019-04-11T05:42:53.434Z,4.51
2019-04-11T05:45:22.633Z,4.49
2019-04-11T05:47:54.991Z,4.48
2019-04-11T05:50:30.242Z,4.54
2019-04-11T05:53:03.712Z,4.57
2019-04-11T05:55:43.263Z,4.63
2019-04-11T05:58:13.887Z,4.66
2019-04-11T06:00:53.341Z,4.53
2019-04-11T06:03:24.045Z,4.64
2019-04-11T06:06:14.482Z,4.62
2019-04-11T06:08:46.060Z,4.68
2019-04-11T06:11:24.161Z,4.75
2019-04-11T06:14:19.706Z,4.74
2019-04-11T06:16:55.463Z,4.85
2019-04-11T06:19:58.682Z,4.80
2019-04-11T06:22:29.799Z,4.73
2019-04-11T06:25:25.788Z,4.71
2019-04-11T06:28:07.071Z,4.83
2019-04-11T06:30:50.730Z,4.97
2019-04-11T06:33:30.867Z,5.08
2019-04-11T06:36:23.459Z,5.20
2019-04-11T06:39:19.123Z,5.03
2019-04-11T06:42:12.892Z,5.23
2019-04-11T06:45:01.986Z,5.26
2019-04-11T06:47:54.909Z,5.26
2019-04-11T06:50:51.347Z,5.34
2019-04-11T06:53:26.249Z,5.45
2019-04-11T06:56:18.973Z,5.42
2019-04-11T06:59:08.291Z,5.26
2019-04-11T07:01:40.522Z,5.36
2019-04-11T07:04:15.660Z,5.51
2019-04-11T07:06:48.173Z,5.33
2019-04-11T07:09:37.192Z,5.30
2019-04-11T07:12:11.769Z,5.35
2019-04-11T07:14:45.578Z,5.49
2019-04-11T07:17:34.531Z,5.50
2019-04-11T07:20:29.879Z,5.68
2019-04-11T07:23:18.001Z,5.76
2019-04-11T07:25:55.903Z,5.74
2019-04-11T07:28:39.998Z,5.68
2019-04-11T07:31:29.843Z,5.96
2019-04-11T07:34:21.186Z,6.01
2019-04-11T07:37:10.447Z,6.07
2019-04-11T07:40:07.413Z,6.05
2019-04-11T07:42:59.295Z,5.96
2019-04-11T07:45:32.265Z,6.09
2019-04-11T07:48:27.783Z,6.24
2019-04-11T07:51:09.166Z,6.27
2019-04-11T07:53:43.721Z,6.45
2019-04-11T07:56:29.606Z,6.07
2019-04-11T07:59:02.987Z,6.28
2019-04-11T08:02:01.620Z,6.40
2019-04-11T08:04:49.993Z,6.41
2019-04-11T08:07:40.455Z,6.40
2019-04-11T08:10:16.468Z,6.46
2019-04-11T08:12:47.954Z,5.90
2019-04-11T08:15:42.437Z,5.42
2019-04-11T08:18:21.668Z,5.44
2019-04-11T08:21:12.170Z,5.58
2019-04-11T08:23:44.229Z,5.62
2019-04-11T08:26:33.980Z,5.57
2019-04-11T08:29:11.618Z,5.71
2019-04-11T08:31:56.700Z,5.77
2019-04-11T08:34:31.239Z,5.92
2019-04-11T08:37:27.570Z,6.06
2019-04-11T08:39:59.582Z,6.13
2019-04-11T08:43:04.650Z,6.15
2019-04-11T08:45:36.724Z,6.18
2019-04-11T08:48:08.841Z,6.51
2019-04-11T08:50:42.799Z,6.72
2019-04-11T08:53:47.405Z,6.57
2019-04-11T08:56:19.004Z,6.71
2019-04-11T08:59:35.805Z,6.41
2019-04-11T09:02:07.196Z,6.54
2019-04-11T09:05:04.995Z,6.53
2019-04-11T09:07:32.243Z,6.43
2019-04-11T09:10:20.540Z,6.81
2019-04-11T09:12:58.552Z,6.97
2019-04-11T09:15:46.758Z,6.98
2019-04-11T09:18:17.748Z,6.90
2019-04-11T09:21:22.462Z,7.01
2019-04-11T09:23:54.299Z,7.11
2019-04-11T09:26:47.867Z,7.37
2019-04-11T09:29:18.842Z,7.46
2019-04-11T09:32:09.741Z,7.38
2019-04-11T09:35:03.665Z,7.49
2019-04-11T09:37:36.222Z,7.84
2019-04-11T09:40:28.025Z,8.36
2019-04-11T09:43:16.047Z,8.00
2019-04-11T09:46:04.017Z,7.49
2019-04-11T09:49:06.561Z,7.38
2019-04-11T09:51:44.270Z,7.29
2019-04-11T09:54:23.960Z,7.02
2019-04-11T09:57:16.470Z,7.13
2019-04-11T10:00:22.870Z,7.57
2019-04-11T10:02:58.650Z,8.02
2019-04-11T10:05:52.269Z,8.57
2019-04-11T10:08:43.709Z,9.04
2019-04-11T10:11:32.528Z,9.09
2019-04-11T10:14:09.299Z,9.04
2019-04-11T10:17:08.982Z,8.74
2019-04-11T10:19:48.449Z,8.36
2019-04-11T10:22:40.496Z,8.08
2019-04-11T10:25:17.489Z,8.07
2019-04-11T10:28:09.499Z,7.79
2019-04-11T10:30:57.999Z,7.73
2019-04-11T10:33:39.268Z,7.37
2019-04-11T10:36:21.428Z,7.43
2019-04-11T10:39:00.540Z,7.36
2019-04-11T10:41:34.578Z,7.17
2019-04-11T10:44:05.641Z,7.35
2019-04-11T10:46:49.572Z,7.19
2019-04-11T10:49:40.439Z,7.12
2019-04-11T10:52:30.838Z,6.92
2019-04-11T10:55:07.420Z,6.91
2019-04-11T10:57:44.463Z,7.09
2019-04-11T11:00:27.205Z,7.38
2019-04-11T11:03:22.448Z,7.37
2019-04-11T11:05:55.718Z,7.45
2019-04-11T11:08:33.593Z,7.67
2019-04-11T11:11:11.777Z,7.67
2019-04-11T11:14:04.551Z,7.95
2019-04-11T11:16:44.995Z,7.86
2019-04-11T11:19:45.751Z,7.89
2019-04-11T11:22:23.797Z,7.78
2019-04-11T11:25:26.739Z,7.56
2019-04-11T11:27:57.894Z,7.58
2019-04-11T11:30:50.188Z,7.22
2019-04-11T11:33:25.240Z,7.31
2019-04-11T11:36:34.950Z,7.27
2019-04-11T11:39:15.168Z,7.37
2019-04-11T11:42:04.098Z,7.15
2019-04-11T11:44:51.213Z,7.10
2019-04-11T11:47:40.417Z,7.17
2019-04-11T11:50:17.912Z,7.19
2019-04-11T11:53:07.364Z,7.44
2019-04-11T11:55:38.748Z,7.50
2019-04-11T11:58:37.527Z,7.70
2019-04-11T12:01:09.347Z,7.62
2019-04-11T12:04:01.316Z,7.38
2019-04-11T12:06:31.459Z,7.61
2019-04-11T12:09:20.382Z,7.33
2019-04-11T12:11:55.575Z,7.52
2019-04-11T12:14:55.792Z,7.66
2019-04-11T12:17:45.114Z,7.86
2019-04-11T12:20:25.211Z,7.95
2019-04-11T12:22:56.971Z,7.77
2019-04-11T12:25:31.786Z,7.90
2019-04-11T12:28:35.911Z,7.77
2019-04-11T12:31:09.293Z,7.72
2019-04-11T12:34:14.329Z,8.16
2019-04-11T12:36:48.002Z,8.22
2019-04-11T12:39:35.869Z,8.30
2019-04-11T12:42:31.266Z,7.66
2019-04-11T12:45:32.828Z,8.10
2019-04-11T12:48:03.793Z,8.32
2019-04-11T12:50:54.018Z,8.69
2019-04-11T12:53:26.532Z,8.48
2019-04-11T12:56:34.088Z,8.80
2019-04-11T12:59:07.736Z,9.23
2019-04-11T13:02:03.325Z,8.77
2019-04-11T13:04:36.257Z,8.49
2019-04-11T13:07:31.785Z,8.17
2019-04-11T13:10:15.834Z,8.29
2019-04-11T13:13:20.311Z,8.29
2019-04-11T13:16:19.004Z,8.15
2019-04-11T13:19:08.169Z,7.98
2019-04-11T13:21:43.005Z,7.93
2019-04-11T13:24:38.845Z,8.12
2019-04-11T13:27:26.780Z,8.04
2019-04-11T13:30:17.055Z,7.94
2019-04-11T13:32:57.414Z,8.05
2019-04-11T13:36:04.863Z,8.15
2019-04-11T13:38:39.271Z,8.45
2019-04-11T13:41:20.148Z,8.33
2019-04-11T13:44:09.646Z,8.43
2019-04-11T13:46:57.982Z,8.59
2019-04-11T13:49:45.825Z,8.49
2019-04-11T13:52:35.425Z,8.49
2019-04-11T13:55:27.872Z,8.60
2019-04-11T13:58:17.200Z,8.53
2019-04-11T14:00:49.872Z,8.58
2019-04-11T14:03:48.160Z,8.88
2019-04-11T14:06:37.655Z,9.06
2019-04-11T14:09:37.905Z,9.57
2019-04-11T14:12:12.979Z,9.46
2019-04-11T14:15:06.067Z,9.82
2019-04-11T14:18:05.823Z,10.05
2019-04-11T14:20:42.652Z,9.62
2019-04-11T14:23:35.207Z,9.07
2019-04-11T14:26:28.644Z,8.99
2019-04-11T14:29:17.141Z,8.53
2019-04-11T14:31:54.721Z,9.07
2019-04-11T14:34:50.035Z,9.28
2019-04-11T14:37:38.455Z,9.07
2019-04-11T14:40:13.429Z,9.55
2019-04-11T14:43:03.195Z,10.89
2019-04-11T14:46:06.878Z,11.35
2019-04-11T14:48:49.155Z,11.73
2019-04-11T14:51:54.522Z,12.22
2019-04-11T14:54:31.090Z,9.50
2019-04-11T14:57:12.859Z,9.50
2019-04-11T14:59:54.128Z,8.86
2019-04-11T15:02:50.063Z,8.43
2019-04-11T15:05:39.283Z,8.22
2019-04-11T15:08:12.460Z,7.79
2019-04-11T15:11:01.683Z,8.07
2019-04-11T15:13:32.804Z,8.05
2019-04-11T15:16:23.558Z,7.57
2019-04-11T15:19:02.113Z,7.67
2019-04-11T15:22:10.103Z,7.63
2019-04-11T15:24:41.314Z,7.68
2019-04-11T15:27:29.080Z,7.73
2019-04-11T15:30:00.816Z,7.60
2019-04-11T15:32:51.147Z,7.40
2019-04-11T15:35:21.888Z,7.26
2019-04-11T15:38:00.725Z,7.43
2019-04-11T15:40:42.424Z,7.40
2019-04-11T15:43:42.237Z,7.49
2019-04-11T15:46:29.992Z,7.61
2019-04-11T15:49:30.460Z,7.58
2019-04-11T15:52:27.543Z,7.20
2019-04-11T15:55:23.313Z,7.06
2019-04-11T15:57:56.541Z,7.12
2019-04-11T16:01:04.259Z,7.18
2019-04-11T16:03:35.540Z,7.05
2019-04-11T16:06:23.719Z,7.03
2019-04-11T16:09:01.806Z,7.08
2019-04-11T16:11:53.947Z,6.91
2019-04-11T16:14:43.828Z,6.87
2019-04-11T16:17:37.402Z,6.94
2019-04-11T16:20:26.512Z,6.90
2019-04-11T16:23:25.826Z,6.95
2019-04-11T16:25:57.310Z,6.84
2019-04-11T16:28:45.865Z,6.67
2019-04-11T16:31:16.132Z,6.65
2019-04-11T16:34:08.083Z,6.64
2019-04-11T16:36:53.799Z,6.71
2019-04-11T16:39:49.985Z,6.68
2019-04-11T16:42:34.453Z,6.58
2019-04-11T16:45:24.706Z,6.51
2019-04-11T16:48:02.864Z,6.41
2019-04-11T16:50:33.945Z,6.28
2019-04-11T16:53:04.152Z,6.22
2019-04-11T16:55:36.746Z,6.28
2019-04-11T16:58:07.009Z,6.19
2019-04-11T17:00:39.356Z,6.16
2019-04-11T17:03:09.678Z,6.03
2019-04-11T17:05:42.669Z,6.02
2019-04-11T17:08:48.373Z,6.03
2019-04-11T17:11:19.912Z,6.08
2019-04-11T17:13:50.640Z,5.89
2019-04-11T17:16:22.216Z,5.78
2019-04-11T17:18:52.982Z,5.82
2019-04-11T17:21:23.533Z,5.78
2019-04-11T17:23:53.869Z,5.70
2019-04-11T17:26:24.385Z,5.63
2019-04-11T17:28:55.307Z,5.63
2019-04-11T17:31:26.662Z,5.37
2019-04-11T17:34:01.517Z,5.10
2019-04-11T17:36:30.746Z,5.05
2019-04-11T17:39:01.681Z,4.82
2019-04-11T17:41:49.930Z,4.69
2019-04-11T17:44:21.293Z,4.69
2019-04-11T17:46:51.716Z,4.67
2019-04-11T17:49:22.598Z,4.70
2019-04-11T17:51:56.128Z,4.72
2019-04-11T17:54:25.585Z,4.75
2019-04-11T17:56:58.849Z,4.68
2019-04-11T17:59:29.090Z,4.63
2019-04-11T18:01:59.992Z,4.66
2019-04-11T18:04:30.634Z,4.73
2019-04-11T18:07:01.292Z,4.77
2019-04-11T18:09:32.087Z,4.74
2019-04-11T18:12:02.391Z,4.75
2019-04-11T18:14:33.650Z,4.90
2019-04-11T18:17:04.888Z,4.82
2019-04-11T18:19:36.237Z,5.00
2019-04-11T18:22:08.487Z,5.02
2019-04-11T18:24:39.229Z,4.99
2019-04-11T18:27:09.518Z,4.95
2019-04-11T18:29:40.335Z,4.89
2019-04-11T18:32:11.186Z,5.00
2019-04-11T18:34:41.422Z,5.12
2019-04-11T18:37:12.229Z,5.17
2019-04-11T18:39:46.889Z,5.06
2019-04-11T18:42:18.266Z,5.04
2019-04-11T18:44:48.741Z,4.96
2019-04-11T18:47:20.035Z,4.96
2019-04-11T18:49:53.273Z,5.03
2019-04-11T18:52:25.091Z,5.12
2019-04-11T18:54:55.872Z,5.24
2019-04-11T18:57:26.977Z,5.16
2019-04-11T18:59:57.663Z,5.15
2019-04-11T19:02:28.541Z,5.06
2019-04-11T19:04:59.135Z,4.95
2019-04-11T19:07:29.828Z,4.96
2019-04-11T19:10:00.174Z,4.95
2019-04-11T19:12:30.862Z,5.04
2019-04-11T19:15:01.524Z,5.01
2019-04-11T19:17:31.781Z,5.09
2019-04-11T19:20:02.433Z,5.11
2019-04-11T19:22:37.593Z,5.21
2019-04-11T19:25:06.833Z,5.33
2019-04-11T19:27:37.542Z,5.20
2019-04-11T19:30:09.085Z,5.18
2019-04-11T19:32:39.714Z,5.20
2019-04-11T19:35:11.387Z,5.22
2019-04-11T19:37:42.673Z,5.19
2019-04-11T19:40:16.171Z,5.15
2019-04-11T19:42:48.774Z,5.19
2019-04-11T19:45:19.606Z,5.18
2019-04-11T19:47:52.206Z,5.20
2019-04-11T19:50:22.010Z,5.24
2019-04-11T19:52:52.236Z,5.26
2019-04-11T19:55:39.886Z,5.13
2019-04-11T19:58:10.277Z,5.10
2019-04-11T20:00:40.791Z,5.19
2019-04-11T20:03:11.583Z,5.33
2019-04-11T20:05:42.249Z,5.29
2019-04-11T20:08:14.022Z,5.21
2019-04-11T20:10:44.757Z,5.21
2019-04-11T20:13:15.541Z,5.13
2019-04-11T20:15:46.205Z,5.17
2019-04-11T20:18:20.014Z,5.17
2019-04-11T20:20:52.207Z,5.20
2019-04-11T20:23:22.152Z,5.25
2019-04-11T20:25:52.793Z,5.18
2019-04-11T20:28:23.534Z,5.34
2019-04-11T20:30:55.772Z,5.40
2019-04-11T20:33:27.756Z,5.37
2019-04-11T20:35:59.389Z,5.32
2019-04-11T20:38:30.165Z,5.21
2019-04-11T20:41:00.779Z,5.14
2019-04-11T20:43:32.294Z,5.17
2019-04-11T20:46:02.920Z,5.20
2019-04-11T20:48:35.201Z,5.28
2019-04-11T20:51:07.288Z,5.12
2019-04-11T20:53:38.013Z,5.11
2019-04-11T20:56:09.959Z,5.15
2019-04-11T20:58:43.353Z,5.10
2019-04-11T21:01:14.416Z,5.14
2019-04-11T21:03:45.146Z,5.10
2019-04-11T21:06:15.452Z,5.23
2019-04-11T21:08:49.987Z,5.09
2019-04-11T21:11:21.048Z,5.02
2019-04-11T21:13:51.299Z,5.19
2019-04-11T21:16:22.670Z,5.28
2019-04-11T21:18:54.494Z,5.31
2019-04-11T21:21:25.802Z,5.33
2019-04-11T21:23:57.997Z,5.23
2019-04-11T21:26:28.874Z,5.17
2019-04-11T21:29:00.560Z,5.19
2019-04-11T21:31:32.057Z,5.04
2019-04-11T21:34:03.317Z,5.02
2019-04-11T21:36:33.665Z,5.10
2019-04-11T21:39:05.426Z,5.11
2019-04-11T21:41:37.152Z,5.15
2019-04-11T21:44:07.575Z,5.12
2019-04-11T21:46:41.764Z,5.07
2019-04-11T21:49:10.982Z,5.11
2019-04-11T21:51:42.579Z,5.07
2019-04-11T21:54:14.940Z,5.04
2019-04-11T21:56:49.262Z,5.05
2019-04-11T21:59:20.354Z,5.08
2019-04-11T22:01:53.895Z,5.08
2019-04-11T22:04:26.930Z,5.00
2019-04-11T22:06:54.766Z,5.07
2019-04-11T22:09:25.595Z,4.89
2019-04-11T22:11:55.835Z,5.01
2019-04-11T22:14:26.488Z,5.02
2019-04-11T22:16:57.751Z,4.94
2019-04-11T22:19:28.412Z,4.94
2019-04-11T22:21:58.685Z,4.78
2019-04-11T22:24:30.287Z,4.79
2019-04-11T22:27:00.994Z,4.68
2019-04-11T22:29:31.354Z,4.63
2019-04-11T22:32:04.325Z,4.52
2019-04-11T22:34:41.168Z,4.62
2019-04-11T22:37:12.744Z,4.67
2019-04-11T22:39:43.211Z,4.57
2019-04-11T22:42:13.805Z,4.53
2019-04-11T22:44:44.907Z,4.58
2019-04-11T22:47:15.190Z,4.66
2019-04-11T22:49:45.990Z,4.62
2019-04-11T22:52:16.657Z,4.63
2019-04-11T22:54:47.509Z,4.63
2019-04-11T22:57:18.944Z,4.68
2019-04-11T22:59:49.489Z,4.71
2019-04-11T23:02:30.531Z,4.54
2019-04-11T23:05:03.155Z,4.45
2019-04-11T23:07:33.429Z,4.36
2019-04-11T23:10:03.786Z,4.40
2019-04-11T23:12:34.059Z,4.45
2019-04-11T23:15:06.395Z,4.39
2019-04-11T23:17:38.037Z,4.40
2019-04-11T23:20:08.730Z,4.26
2019-04-11T23:22:40.049Z,4.16
2019-04-11T23:25:11.688Z,4.17
2019-04-11T23:27:41.903Z,4.18
2019-04-11T23:30:15.991Z,4.13
2019-04-11T23:32:50.805Z,4.21
2019-04-11T23:35:21.143Z,4.23
2019-04-11T23:37:52.295Z,4.09
2019-04-11T23:40:22.644Z,4.11
2019-04-11T23:42:52.864Z,4.01
2019-04-11T23:45:26.149Z,4.02
2019-04-11T23:47:56.471Z,3.93
2019-04-11T23:50:26.691Z,3.96
2019-04-11T23:52:58.154Z,3.88
2019-04-11T23:55:30.681Z,4.00
2019-04-11T23:58:02.217Z,3.91
